Em Athens — V7US8 — position and weather

sailwx.info

Track history (hours):
 
Tides and Currents Weather Stations Pressure Air Temp Water Temp Dewpoint Dewpoint Depression Visibility Wind Speed Wind Dir Waves Ship Positions

Em Athens

Last reported at 2015-May-04 22:15 UTC. Time now 2015-May-05 02:09 UTC.
Position N 31°11' E 029°52'.

Length 207 m; draft 11 m.

Type: Cargo ship. MMSI: 538004019.

Date/timePositionNaut miles runAvg speedWind from/ knotsBaromVisibWave heightAir tempDewpointWater temp
2015-May-04 22:15N 31°11' E 029°52'52715.6
2015-May-03 12:29N 34°30' E 020°11'3316.5
2015-May-03 10:31N 34°43' E 019°35'8517.0
2015-May-03 05:33N 35°15' E 017°59'4016.4
2015-May-03 03:06N 35°30' E 017°14'4216.4
2015-May-03 00:32N 35°46' E 016°26'1616.5
2015-May-02 23:33N 35°52' E 016°07'1616.2
2015-May-02 22:33N 35°59' E 015°49'1716.4
2015-May-02 21:33N 36°05' E 015°30'1616.3
2015-May-02 20:33N 36°11' E 015°11'1616.2
2015-May-02 19:33N 36°17' E 014°53'1616.2
2015-May-02 18:33N 36°23' E 014°34'1616.4
2015-May-02 17:33N 36°32' E 014°17'1616.3
2015-May-02 16:33N 36°41' E 013°60'1716.8
2015-May-02 15:34N 36°49' E 013°42'1716.8
2015-May-02 14:34N 36°59' E 013°24'1716.6
2015-May-02 13:33N 37°08' E 013°07'2416.1
2015-May-02 12:04N 37°20' E 012°42'2616.8
2015-May-02 10:32N 37°34' E 012°14'1717.0
2015-May-02 09:33N 37°43' E 011°56'1717.2
2015-May-02 08:33N 37°52' E 011°38'1717.1
2015-May-02 07:33N 38°02' E 011°20'1817.8
2015-May-02 06:31N 38°12' E 011°00'5417.6
2015-May-02 03:28N 38°40' E 010°02'1617.2
2015-May-02 02:33N 38°49' E 009°45'1817.4
2015-May-02 01:33N 38°58' E 009°26'1716.5
2015-May-02 00:33N 39°07' E 009°08'6 6.3
2015-May-01 23:33N 39°13' E 009°04'0 0.0
2015-May-01 22:32N 39°13' E 009°04'0 0.0
2015-May-01 21:33N 39°13' E 009°04'0 0.0
2015-May-01 20:33N 39°13' E 009°04'0 0.0
2015-May-01 19:33N 39°13' E 009°04'0 0.0
2015-May-01 18:33N 39°13' E 009°04'0 0.0
2015-May-01 17:33N 39°13' E 009°04'0 0.0
2015-May-01 16:33N 39°13' E 009°04'0 0.0
2015-May-01 15:32N 39°13' E 009°04'0 0.0
2015-May-01 14:33N 39°13' E 009°04'0 0.0
2015-May-01 13:33N 39°13' E 009°04'0 0.0
2015-May-01 12:33N 39°13' E 009°04'0 0.0
2015-May-01 11:33N 39°13' E 009°04'0 0.0
2015-May-01 10:33N 39°13' E 009°04'0 0.0
2015-May-01 09:32N 39°13' E 009°04'0 0.0
2015-May-01 08:33N 39°13' E 009°04'0 0.0
2015-May-01 07:32N 39°13' E 009°04'0 0.0
2015-May-01 06:33N 39°13' E 009°04'0 0.0
2015-May-01 05:32N 39°13' E 009°04'0 0.0
2015-May-01 04:33N 39°13' E 009°04'2 2.0
2015-May-01 03:33N 39°11' E 009°06'7 7.5
2015-May-01 02:33N 39°06' E 009°12'1211.6
2015-May-01 01:33N 39°00' E 009°25'1616.1
2015-May-01 00:33N 39°03' E 009°46'19016.5
2015-Apr-30 13:05N 40°15' E 013°33'916.1
2015-Apr-30 12:33N 40°18' E 013°44'1616.2
2015-Apr-30 11:34N 40°25' E 014°03'1716.2
2015-Apr-30 10:31N 40°31' E 014°24'18 1.0
2015-Apr-29 16:19N 40°38' E 014°46'6 0.1
2015-Apr-28 00:07N 40°36' E 014°40'1117.2
2015-Apr-27 23:27N 40°34' E 014°25'1112.3
2015-Apr-27 22:33N 40°43' E 014°18'7 6.7
2015-Apr-27 21:29N 40°50' E 014°17'0 0.0
2015-Apr-27 20:21N 40°50' E 014°17'0 0.0
2015-Apr-27 19:33N 40°50' E 014°17'0 0.0
2015-Apr-27 17:24N 40°50' E 014°17'0 0.0
2015-Apr-27 16:33N 40°50' E 014°17'0 0.0
2015-Apr-27 15:24N 40°50' E 014°17'0 0.0
2015-Apr-27 14:18N 40°50' E 014°17'0 0.0
2015-Apr-27 12:15N 40°50' E 014°17'0 0.0
2015-Apr-27 08:15N 40°50' E 014°17'0 0.0
2015-Apr-27 07:21N 40°50' E 014°17'1 1.1
2015-Apr-27 06:25N 40°49' E 014°17'2 1.9
2015-Apr-27 05:27N 40°48' E 014°16'3 3.1
2015-Apr-27 04:27N 40°45' E 014°14'1011.3
2015-Apr-27 03:33N 40°39' E 014°03'1211.6
2015-Apr-27 02:33N 40°39' E 013°48'1212.3
2015-Apr-27 01:33N 40°42' E 013°32'1312.5
2015-Apr-27 00:30N 40°45' E 013°15'1212.6
2015-Apr-26 23:33N 40°48' E 012°60'4912.2
2015-Apr-26 19:33N 41°18' E 012°09'13613.5
2015-Apr-26 09:32N 42°57' E 010°04'1414.2
2015-Apr-26 08:33N 43°11' E 010°07'1414.1
2015-Apr-26 07:33N 43°25' E 010°10'1010.2
2015-Apr-26 06:33N 43°33' E 010°18'1 0.9
2015-Apr-26 05:33N 43°34' E 010°18'0 0.0
2015-Apr-26 04:33N 43°34' E 010°18'0 0.0
2015-Apr-26 03:33N 43°34' E 010°18'0 0.0
2015-Apr-26 02:33N 43°34' E 010°18'0 0.0
2015-Apr-26 01:33N 43°34' E 010°18'0 0.0
2015-Apr-26 00:30N 43°34' E 010°18'0 0.0
2015-Apr-25 23:33N 43°34' E 010°18'0 0.0
2015-Apr-25 22:33N 43°34' E 010°18'0 0.0
2015-Apr-25 21:33N 43°34' E 010°18'0 0.0
2015-Apr-25 20:33N 43°34' E 010°18'0 0.0
2015-Apr-25 19:33N 43°34' E 010°18'0 0.0
2015-Apr-25 18:30N 43°34' E 010°18'0 0.0
2015-Apr-25 17:33N 43°34' E 010°18'0 0.0
2015-Apr-25 16:33N 43°34' E 010°18'0 0.0
2015-Apr-25 15:33N 43°34' E 010°18'0 0.0
2015-Apr-25 14:33N 43°34' E 010°18'0 0.0
2015-Apr-25 13:33N 43°34' E 010°18'0 0.0
2015-Apr-25 12:33N 43°34' E 010°18'0 0.2
2015-Apr-25 11:34N 43°34' E 010°18'5 4.5
2015-Apr-25 10:33N 43°30' E 010°16'0 0.1
2015-Apr-25 09:33N 43°30' E 010°16'0 0.0
2015-Apr-25 08:33N 43°30' E 010°16'0 0.0
2015-Apr-25 07:33N 43°30' E 010°16'0 0.1
2015-Apr-25 06:33N 43°30' E 010°16'3 2.8
2015-Apr-25 05:33N 43°29' E 010°12'9 9.4
2015-Apr-25 04:34N 43°32' E 010°00'1212.0
2015-Apr-25 03:33N 43°39' E 009°47'1212.3
2015-Apr-25 02:34N 43°48' E 009°35'1211.9
2015-Apr-25 01:34N 43°56' E 009°23'1211.6
2015-Apr-25 00:33N 44°04' E 009°11'1211.8
2015-Apr-24 23:33N 44°13' E 008°60'1212.1
2015-Apr-24 22:32N 44°20' E 008°46'  
Track history (hours):
 
Tides and Currents Weather Stations Pressure Air Temp Water Temp Dewpoint Dewpoint Depression Visibility Wind Speed Wind Dir Waves Ship Positions

Em Athens

Last reported at 2015-May-04 22:15 UTC. Time now 2015-May-05 02:09 UTC.
Position N 31°11' E 029°52'.

Length 207 m; draft 11 m.

Type: Cargo ship. MMSI: 538004019.

Date/timePositionNaut miles runAvg speedWind from/ knotsBaromVisibWave heightAir tempDewpointWater temp
2015-May-04 22:15N 31°11' E 029°52'52715.6
2015-May-03 12:29N 34°30' E 020°11'3316.5
2015-May-03 10:31N 34°43' E 019°35'8517.0
2015-May-03 05:33N 35°15' E 017°59'4016.4
2015-May-03 03:06N 35°30' E 017°14'4216.4
2015-May-03 00:32N 35°46' E 016°26'1616.5
2015-May-02 23:33N 35°52' E 016°07'1616.2
2015-May-02 22:33N 35°59' E 015°49'1716.4
2015-May-02 21:33N 36°05' E 015°30'1616.3
2015-May-02 20:33N 36°11' E 015°11'1616.2
2015-May-02 19:33N 36°17' E 014°53'1616.2
2015-May-02 18:33N 36°23' E 014°34'1616.4
2015-May-02 17:33N 36°32' E 014°17'1616.3
2015-May-02 16:33N 36°41' E 013°60'1716.8
2015-May-02 15:34N 36°49' E 013°42'1716.8
2015-May-02 14:34N 36°59' E 013°24'1716.6
2015-May-02 13:33N 37°08' E 013°07'2416.1
2015-May-02 12:04N 37°20' E 012°42'2616.8
2015-May-02 10:32N 37°34' E 012°14'1717.0
2015-May-02 09:33N 37°43' E 011°56'1717.2
2015-May-02 08:33N 37°52' E 011°38'1717.1
2015-May-02 07:33N 38°02' E 011°20'1817.8
2015-May-02 06:31N 38°12' E 011°00'5417.6
2015-May-02 03:28N 38°40' E 010°02'1617.2
2015-May-02 02:33N 38°49' E 009°45'1817.4
2015-May-02 01:33N 38°58' E 009°26'1716.5
2015-May-02 00:33N 39°07' E 009°08'6 6.3
2015-May-01 23:33N 39°13' E 009°04'0 0.0
2015-May-01 22:32N 39°13' E 009°04'0 0.0
2015-May-01 21:33N 39°13' E 009°04'0 0.0
2015-May-01 20:33N 39°13' E 009°04'0 0.0
2015-May-01 19:33N 39°13' E 009°04'0 0.0
2015-May-01 18:33N 39°13' E 009°04'0 0.0
2015-May-01 17:33N 39°13' E 009°04'0 0.0
2015-May-01 16:33N 39°13' E 009°04'0 0.0
2015-May-01 15:32N 39°13' E 009°04'0 0.0
2015-May-01 14:33N 39°13' E 009°04'0 0.0
2015-May-01 13:33N 39°13' E 009°04'0 0.0
2015-May-01 12:33N 39°13' E 009°04'0 0.0
2015-May-01 11:33N 39°13' E 009°04'0 0.0
2015-May-01 10:33N 39°13' E 009°04'0 0.0
2015-May-01 09:32N 39°13' E 009°04'0 0.0
2015-May-01 08:33N 39°13' E 009°04'0 0.0
2015-May-01 07:32N 39°13' E 009°04'0 0.0
2015-May-01 06:33N 39°13' E 009°04'0 0.0
2015-May-01 05:32N 39°13' E 009°04'0 0.0
2015-May-01 04:33N 39°13' E 009°04'2 2.0
2015-May-01 03:33N 39°11' E 009°06'7 7.5
2015-May-01 02:33N 39°06' E 009°12'1211.6
2015-May-01 01:33N 39°00' E 009°25'1616.1
2015-May-01 00:33N 39°03' E 009°46'19016.5
2015-Apr-30 13:05N 40°15' E 013°33'916.1
2015-Apr-30 12:33N 40°18' E 013°44'1616.2
2015-Apr-30 11:34N 40°25' E 014°03'1716.2
2015-Apr-30 10:31N 40°31' E 014°24'18 1.0
2015-Apr-29 16:19N 40°38' E 014°46'6 0.1
2015-Apr-28 00:07N 40°36' E 014°40'1117.2
2015-Apr-27 23:27N 40°34' E 014°25'1112.3
2015-Apr-27 22:33N 40°43' E 014°18'7 6.7
2015-Apr-27 21:29N 40°50' E 014°17'0 0.0
2015-Apr-27 20:21N 40°50' E 014°17'0 0.0
2015-Apr-27 19:33N 40°50' E 014°17'0 0.0
2015-Apr-27 17:24N 40°50' E 014°17'0 0.0
2015-Apr-27 16:33N 40°50' E 014°17'0 0.0
2015-Apr-27 15:24N 40°50' E 014°17'0 0.0
2015-Apr-27 14:18N 40°50' E 014°17'0 0.0
2015-Apr-27 12:15N 40°50' E 014°17'0 0.0
2015-Apr-27 08:15N 40°50' E 014°17'0 0.0
2015-Apr-27 07:21N 40°50' E 014°17'1 1.1
2015-Apr-27 06:25N 40°49' E 014°17'2 1.9
2015-Apr-27 05:27N 40°48' E 014°16'3 3.1
2015-Apr-27 04:27N 40°45' E 014°14'1011.3
2015-Apr-27 03:33N 40°39' E 014°03'1211.6
2015-Apr-27 02:33N 40°39' E 013°48'1212.3
2015-Apr-27 01:33N 40°42' E 013°32'1312.5
2015-Apr-27 00:30N 40°45' E 013°15'1212.6
2015-Apr-26 23:33N 40°48' E 012°60'4912.2
2015-Apr-26 19:33N 41°18' E 012°09'13613.5
2015-Apr-26 09:32N 42°57' E 010°04'1414.2
2015-Apr-26 08:33N 43°11' E 010°07'1414.1
2015-Apr-26 07:33N 43°25' E 010°10'1010.2
2015-Apr-26 06:33N 43°33' E 010°18'1 0.9
2015-Apr-26 05:33N 43°34' E 010°18'0 0.0
2015-Apr-26 04:33N 43°34' E 010°18'0 0.0
2015-Apr-26 03:33N 43°34' E 010°18'0 0.0
2015-Apr-26 02:33N 43°34' E 010°18'0 0.0
2015-Apr-26 01:33N 43°34' E 010°18'0 0.0
2015-Apr-26 00:30N 43°34' E 010°18'0 0.0
2015-Apr-25 23:33N 43°34' E 010°18'0 0.0
2015-Apr-25 22:33N 43°34' E 010°18'0 0.0
2015-Apr-25 21:33N 43°34' E 010°18'0 0.0
2015-Apr-25 20:33N 43°34' E 010°18'0 0.0
2015-Apr-25 19:33N 43°34' E 010°18'0 0.0
2015-Apr-25 18:30N 43°34' E 010°18'0 0.0
2015-Apr-25 17:33N 43°34' E 010°18'0 0.0
2015-Apr-25 16:33N 43°34' E 010°18'0 0.0
2015-Apr-25 15:33N 43°34' E 010°18'0 0.0
2015-Apr-25 14:33N 43°34' E 010°18'0 0.0
2015-Apr-25 13:33N 43°34' E 010°18'0 0.0
2015-Apr-25 12:33N 43°34' E 010°18'0 0.2
2015-Apr-25 11:34N 43°34' E 010°18'5 4.5
2015-Apr-25 10:33N 43°30' E 010°16'0 0.1
2015-Apr-25 09:33N 43°30' E 010°16'0 0.0
2015-Apr-25 08:33N 43°30' E 010°16'0 0.0
2015-Apr-25 07:33N 43°30' E 010°16'0 0.1
2015-Apr-25 06:33N 43°30' E 010°16'3 2.8
2015-Apr-25 05:33N 43°29' E 010°12'9 9.4
2015-Apr-25 04:34N 43°32' E 010°00'1212.0
2015-Apr-25 03:33N 43°39' E 009°47'1212.3
2015-Apr-25 02:34N 43°48' E 009°35'1211.9
2015-Apr-25 01:34N 43°56' E 009°23'1211.6
2015-Apr-25 00:33N 44°04' E 009°11'1211.8
2015-Apr-24 23:33N 44°13' E 008°60'1212.1
2015-Apr-24 22:32N 44°20' E 008°46'  

Dump ship's entire track history